sensor_id;sensor_type;location;lat;lon;timestamp;P1;durP1;ratioP1;P2;durP2;ratioP2
20954;SDS011;10636;19.390;-99.256;2023-05-29T00:00:40;6.90;;;6.20;;
20954;SDS011;10636;19.390;-99.256;2023-05-29T00:03:09;6.80;;;6.20;;
20954;SDS011;10636;19.390;-99.256;2023-05-29T00:05:38;7.70;;;7.00;;
20954;SDS011;10636;19.390;-99.256;2023-05-29T00:08:09;7.47;;;6.78;;
20954;SDS011;10636;19.390;-99.256;2023-05-29T00:10:39;7.55;;;6.85;;
20954;SDS011;10636;19.390;-99.256;2023-05-29T00:13:09;7.10;;;6.50;;
20954;SDS011;10636;19.390;-99.256;2023-05-29T00:15:40;7.20;;;6.50;;
20954;SDS011;10636;19.390;-99.256;2023-05-29T00:18:11;7.50;;;6.90;;
20954;SDS011;10636;19.390;-99.256;2023-05-29T00:20:48;7.55;;;6.95;;
20954;SDS011;10636;19.390;-99.256;2023-05-29T00:23:18;7.22;;;6.63;;
20954;SDS011;10636;19.390;-99.256;2023-05-29T00:25:50;7.97;;;7.18;;
20954;SDS011;10636;19.390;-99.256;2023-05-29T00:28:20;7.88;;;7.18;;
20954;SDS011;10636;19.390;-99.256;2023-05-29T00:30:49;7.78;;;7.18;;
20954;SDS011;10636;19.390;-99.256;2023-05-29T00:33:23;7.80;;;7.10;;
20954;SDS011;10636;19.390;-99.256;2023-05-29T00:35:51;7.85;;;7.10;;
20954;SDS011;10636;19.390;-99.256;2023-05-29T00:38:22;7.82;;;7.03;;
20954;SDS011;10636;19.390;-99.256;2023-05-29T00:40:51;7.63;;;6.90;;
20954;SDS011;10636;19.390;-99.256;2023-05-29T00:43:21;7.88;;;7.18;;
20954;SDS011;10636;19.390;-99.256;2023-05-29T00:45:52;8.23;;;7.53;;
20954;SDS011;10636;19.390;-99.256;2023-05-29T00:48:20;8.65;;;7.95;;
20954;SDS011;10636;19.390;-99.256;2023-05-29T00:50:49;8.55;;;7.50;;
20954;SDS011;10636;19.390;-99.256;2023-05-29T00:53:19;10.10;;;9.35;;
20954;SDS011;10636;19.390;-99.256;2023-05-29T00:55:48;9.00;;;8.27;;
20954;SDS011;10636;19.390;-99.256;2023-05-29T00:58:17;11.23;;;10.38;;
20954;SDS011;10636;19.390;-99.256;2023-05-29T01:00:47;8.43;;;6.95;;
20954;SDS011;10636;19.390;-99.256;2023-05-29T01:03:18;8.82;;;7.72;;
20954;SDS011;10636;19.390;-99.256;2023-05-29T01:05:48;8.10;;;7.30;;
20954;SDS011;10636;19.390;-99.256;2023-05-29T01:08:17;8.48;;;7.68;;
20954;SDS011;10636;19.390;-99.256;2023-05-29T01:10:49;10.55;;;9.75;;
20954;SDS011;10636;19.390;-99.256;2023-05-29T01:13:22;7.70;;;7.00;;
20954;SDS011;10636;19.390;-99.256;2023-05-29T01:15:57;8.85;;;7.97;;
20954;SDS011;10636;19.390;-99.256;2023-05-29T01:18:34;12.00;;;11.00;;
20954;SDS011;10636;19.390;-99.256;2023-05-29T01:21:11;10.32;;;9.43;;
20954;SDS011;10636;19.390;-99.256;2023-05-29T01:26:45;10.45;;;9.60;;
20954;SDS011;10636;19.390;-99.256;2023-05-29T01:29:18;7.90;;;7.18;;
20954;SDS011;10636;19.390;-99.256;2023-05-29T01:31:49;7.70;;;7.00;;
20954;SDS011;10636;19.390;-99.256;2023-05-29T01:34:24;8.27;;;7.50;;
20954;SDS011;10636;19.390;-99.256;2023-05-29T01:36:55;7.90;;;7.20;;
20954;SDS011;10636;19.390;-99.256;2023-05-29T01:39:23;8.45;;;7.82;;
20954;SDS011;10636;19.390;-99.256;2023-05-29T01:41:55;8.40;;;6.70;;
20954;SDS011;10636;19.390;-99.256;2023-05-29T01:44:28;7.32;;;6.72;;
20954;SDS011;10636;19.390;-99.256;2023-05-29T01:46:57;7.90;;;7.20;;
20954;SDS011;10636;19.390;-99.256;2023-05-29T01:49:26;6.90;;;6.30;;
20954;SDS011;10636;19.390;-99.256;2023-05-29T01:51:56;9.07;;;8.38;;
20954;SDS011;10636;19.390;-99.256;2023-05-29T01:54:25;8.38;;;7.78;;
20954;SDS011;10636;19.390;-99.256;2023-05-29T01:56:57;7.80;;;7.10;;
20954;SDS011;10636;19.390;-99.256;2023-05-29T01:59:32;8.13;;;7.43;;
20954;SDS011;10636;19.390;-99.256;2023-05-29T02:02:05;9.68;;;8.77;;
20954;SDS011;10636;19.390;-99.256;2023-05-29T02:04:36;10.35;;;9.60;;
20954;SDS011;10636;19.390;-99.256;2023-05-29T02:07:05;8.23;;;7.50;;
20954;SDS011;10636;19.390;-99.256;2023-05-29T02:09:40;9.30;;;8.63;;
20954;SDS011;10636;19.390;-99.256;2023-05-29T02:12:10;10.18;;;9.38;;
20954;SDS011;10636;19.390;-99.256;2023-05-29T02:14:39;9.73;;;8.82;;
20954;SDS011;10636;19.390;-99.256;2023-05-29T02:17:11;9.43;;;8.63;;
20954;SDS011;10636;19.390;-99.256;2023-05-29T02:19:49;10.45;;;9.68;;
20954;SDS011;10636;19.390;-99.256;2023-05-29T02:22:17;7.88;;;7.18;;
20954;SDS011;10636;19.390;-99.256;2023-05-29T02:24:46;8.23;;;7.47;;
20954;SDS011;10636;19.390;-99.256;2023-05-29T02:27:16;8.30;;;7.50;;
20954;SDS011;10636;19.390;-99.256;2023-05-29T02:29:46;8.35;;;7.55;;
20954;SDS011;10636;19.390;-99.256;2023-05-29T02:32:15;8.27;;;7.57;;
20954;SDS011;10636;19.390;-99.256;2023-05-29T02:34:43;8.40;;;7.60;;
20954;SDS011;10636;19.390;-99.256;2023-05-29T02:37:13;8.15;;;7.35;;
20954;SDS011;10636;19.390;-99.256;2023-05-29T02:39:42;8.38;;;7.68;;
20954;SDS011;10636;19.390;-99.256;2023-05-29T02:42:10;13.85;;;12.98;;
20954;SDS011;10636;19.390;-99.256;2023-05-29T02:44:42;10.35;;;9.63;;
20954;SDS011;10636;19.390;-99.256;2023-05-29T02:47:10;10.40;;;9.60;;
20954;SDS011;10636;19.390;-99.256;2023-05-29T02:49:39;10.27;;;9.43;;
20954;SDS011;10636;19.390;-99.256;2023-05-29T02:52:07;10.82;;;10.02;;
20954;SDS011;10636;19.390;-99.256;2023-05-29T02:54:36;12.43;;;11.52;;
20954;SDS011;10636;19.390;-99.256;2023-05-29T02:57:05;11.15;;;10.35;;
20954;SDS011;10636;19.390;-99.256;2023-05-29T02:59:33;8.70;;;7.90;;
20954;SDS011;10636;19.390;-99.256;2023-05-29T03:02:05;13.10;;;12.07;;
20954;SDS011;10636;19.390;-99.256;2023-05-29T03:04:35;10.40;;;9.68;;
20954;SDS011;10636;19.390;-99.256;2023-05-29T03:07:06;7.60;;;6.90;;
20954;SDS011;10636;19.390;-99.256;2023-05-29T03:09:35;8.88;;;8.23;;
20954;SDS011;10636;19.390;-99.256;2023-05-29T03:12:06;8.63;;;7.93;;
20954;SDS011;10636;19.390;-99.256;2023-05-29T03:14:37;7.95;;;7.35;;
20954;SDS011;10636;19.390;-99.256;2023-05-29T03:17:07;7.60;;;7.00;;
20954;SDS011;10636;19.390;-99.256;2023-05-29T03:19:36;8.05;;;7.45;;
20954;SDS011;10636;19.390;-99.256;2023-05-29T03:22:04;7.88;;;7.28;;
20954;SDS011;10636;19.390;-99.256;2023-05-29T03:24:33;7.47;;;6.88;;
20954;SDS011;10636;19.390;-99.256;2023-05-29T03:27:02;7.95;;;7.30;;
20954;SDS011;10636;19.390;-99.256;2023-05-29T03:29:31;6.93;;;6.13;;
20954;SDS011;10636;19.390;-99.256;2023-05-29T03:32:02;6.53;;;5.88;;
20954;SDS011;10636;19.390;-99.256;2023-05-29T03:34:34;5.53;;;5.13;;
20954;SDS011;10636;19.390;-99.256;2023-05-29T03:37:02;6.20;;;5.60;;
20954;SDS011;10636;19.390;-99.256;2023-05-29T03:39:33;6.10;;;5.63;;
20954;SDS011;10636;19.390;-99.256;2023-05-29T03:42:01;5.45;;;5.05;;
20954;SDS011;10636;19.390;-99.256;2023-05-29T03:44:30;5.65;;;5.15;;
20954;SDS011;10636;19.390;-99.256;2023-05-29T03:47:01;5.60;;;5.10;;
20954;SDS011;10636;19.390;-99.256;2023-05-29T03:49:30;5.25;;;4.80;;
20954;SDS011;10636;19.390;-99.256;2023-05-29T03:52:00;5.20;;;4.70;;
20954;SDS011;10636;19.390;-99.256;2023-05-29T03:54:28;5.15;;;4.65;;
20954;SDS011;10636;19.390;-99.256;2023-05-29T03:56:59;5.32;;;4.75;;
20954;SDS011;10636;19.390;-99.256;2023-05-29T03:59:27;4.93;;;4.53;;
20954;SDS011;10636;19.390;-99.256;2023-05-29T04:01:56;4.82;;;4.43;;
20954;SDS011;10636;19.390;-99.256;2023-05-29T04:04:26;5.00;;;4.60;;
20954;SDS011;10636;19.390;-99.256;2023-05-29T04:07:03;5.05;;;4.60;;
20954;SDS011;10636;19.390;-99.256;2023-05-29T04:09:34;5.07;;;4.63;;
20954;SDS011;10636;19.390;-99.256;2023-05-29T04:12:03;5.70;;;5.20;;
20954;SDS011;10636;19.390;-99.256;2023-05-29T04:14:32;5.93;;;5.32;;
20954;SDS011;10636;19.390;-99.256;2023-05-29T04:17:01;5.60;;;5.10;;
20954;SDS011;10636;19.390;-99.256;2023-05-29T04:19:29;6.32;;;5.80;;
20954;SDS011;10636;19.390;-99.256;2023-05-29T04:22:00;5.90;;;5.40;;
20954;SDS011;10636;19.390;-99.256;2023-05-29T04:24:30;5.70;;;5.20;;
20954;SDS011;10636;19.390;-99.256;2023-05-29T04:27:01;5.60;;;5.20;;
20954;SDS011;10636;19.390;-99.256;2023-05-29T04:29:30;5.70;;;5.25;;
20954;SDS011;10636;19.390;-99.256;2023-05-29T04:31:59;5.82;;;4.93;;
20954;SDS011;10636;19.390;-99.256;2023-05-29T04:34:29;6.07;;;5.40;;
20954;SDS011;10636;19.390;-99.256;2023-05-29T04:36:57;5.72;;;5.18;;
20954;SDS011;10636;19.390;-99.256;2023-05-29T04:39:27;5.35;;;4.85;;
20954;SDS011;10636;19.390;-99.256;2023-05-29T04:41:56;5.82;;;5.32;;
20954;SDS011;10636;19.390;-99.256;2023-05-29T04:44:24;5.40;;;5.00;;
20954;SDS011;10636;19.390;-99.256;2023-05-29T04:46:54;5.88;;;5.40;;
20954;SDS011;10636;19.390;-99.256;2023-05-29T04:49:23;5.38;;;4.90;;
20954;SDS011;10636;19.390;-99.256;2023-05-29T04:51:52;5.70;;;5.20;;
20954;SDS011;10636;19.390;-99.256;2023-05-29T04:54:21;5.97;;;5.40;;
20954;SDS011;10636;19.390;-99.256;2023-05-29T04:56:51;6.15;;;5.55;;
20954;SDS011;10636;19.390;-99.256;2023-05-29T04:59:20;5.60;;;5.20;;
20954;SDS011;10636;19.390;-99.256;2023-05-29T05:01:48;6.15;;;5.65;;
20954;SDS011;10636;19.390;-99.256;2023-05-29T05:04:17;6.15;;;5.65;;
20954;SDS011;10636;19.390;-99.256;2023-05-29T05:06:45;5.85;;;5.35;;
20954;SDS011;10636;19.390;-99.256;2023-05-29T05:09:16;6.30;;;5.80;;
20954;SDS011;10636;19.390;-99.256;2023-05-29T05:11:44;6.20;;;5.70;;
20954;SDS011;10636;19.390;-99.256;2023-05-29T05:14:14;6.13;;;5.53;;
20954;SDS011;10636;19.390;-99.256;2023-05-29T05:16:43;5.65;;;5.15;;
20954;SDS011;10636;19.390;-99.256;2023-05-29T05:19:11;5.72;;;5.22;;
20954;SDS011;10636;19.390;-99.256;2023-05-29T05:21:40;5.50;;;5.00;;
20954;SDS011;10636;19.390;-99.256;2023-05-29T05:24:08;5.68;;;5.28;;
20954;SDS011;10636;19.390;-99.256;2023-05-29T05:26:36;5.63;;;5.00;;
20954;SDS011;10636;19.390;-99.256;2023-05-29T05:29:05;5.60;;;5.20;;
20954;SDS011;10636;19.390;-99.256;2023-05-29T05:31:35;5.68;;;5.18;;
20954;SDS011;10636;19.390;-99.256;2023-05-29T05:34:03;6.00;;;5.40;;
20954;SDS011;10636;19.390;-99.256;2023-05-29T05:36:32;5.90;;;5.40;;
20954;SDS011;10636;19.390;-99.256;2023-05-29T05:39:02;5.65;;;5.25;;
20954;SDS011;10636;19.390;-99.256;2023-05-29T05:41:31;5.47;;;5.07;;
20954;SDS011;10636;19.390;-99.256;2023-05-29T05:43:59;5.32;;;4.90;;
20954;SDS011;10636;19.390;-99.256;2023-05-29T05:46:27;5.25;;;4.80;;
20954;SDS011;10636;19.390;-99.256;2023-05-29T05:48:58;5.55;;;5.05;;
20954;SDS011;10636;19.390;-99.256;2023-05-29T05:51:26;5.70;;;5.20;;
20954;SDS011;10636;19.390;-99.256;2023-05-29T05:53:55;5.90;;;5.20;;
20954;SDS011;10636;19.390;-99.256;2023-05-29T05:56:23;5.82;;;5.43;;
20954;SDS011;10636;19.390;-99.256;2023-05-29T05:58:52;5.20;;;4.80;;
20954;SDS011;10636;19.390;-99.256;2023-05-29T06:01:20;5.60;;;5.10;;
20954;SDS011;10636;19.390;-99.256;2023-05-29T06:03:49;5.80;;;5.30;;
20954;SDS011;10636;19.390;-99.256;2023-05-29T06:06:19;5.13;;;4.72;;
20954;SDS011;10636;19.390;-99.256;2023-05-29T06:08:47;5.65;;;5.20;;
20954;SDS011;10636;19.390;-99.256;2023-05-29T06:11:15;6.07;;;5.57;;
20954;SDS011;10636;19.390;-99.256;2023-05-29T06:13:45;5.75;;;5.25;;
20954;SDS011;10636;19.390;-99.256;2023-05-29T06:16:13;5.68;;;5.03;;
20954;SDS011;10636;19.390;-99.256;2023-05-29T06:18:42;5.38;;;4.97;;
20954;SDS011;10636;19.390;-99.256;2023-05-29T06:21:11;5.55;;;5.15;;
20954;SDS011;10636;19.390;-99.256;2023-05-29T06:23:41;4.97;;;4.57;;
20954;SDS011;10636;19.390;-99.256;2023-05-29T06:26:10;5.10;;;4.60;;
20954;SDS011;10636;19.390;-99.256;2023-05-29T06:28:38;5.32;;;4.82;;
20954;SDS011;10636;19.390;-99.256;2023-05-29T06:31:07;5.30;;;4.80;;
20954;SDS011;10636;19.390;-99.256;2023-05-29T06:33:35;4.88;;;4.47;;
20954;SDS011;10636;19.390;-99.256;2023-05-29T06:36:04;5.25;;;4.85;;
20954;SDS011;10636;19.390;-99.256;2023-05-29T06:38:34;5.30;;;4.90;;
20954;SDS011;10636;19.390;-99.256;2023-05-29T06:41:04;5.18;;;4.78;;
20954;SDS011;10636;19.390;-99.256;2023-05-29T06:43:32;5.15;;;4.75;;
20954;SDS011;10636;19.390;-99.256;2023-05-29T06:46:01;5.28;;;4.88;;
20954;SDS011;10636;19.390;-99.256;2023-05-29T06:48:32;5.20;;;4.80;;
20954;SDS011;10636;19.390;-99.256;2023-05-29T06:51:01;5.20;;;4.80;;
20954;SDS011;10636;19.390;-99.256;2023-05-29T06:53:34;5.20;;;4.80;;
20954;SDS011;10636;19.390;-99.256;2023-05-29T06:56:05;5.28;;;4.88;;
20954;SDS011;10636;19.390;-99.256;2023-05-29T06:58:33;5.43;;;4.93;;
20954;SDS011;10636;19.390;-99.256;2023-05-29T07:01:02;5.15;;;4.75;;
20954;SDS011;10636;19.390;-99.256;2023-05-29T07:03:31;5.57;;;5.07;;
20954;SDS011;10636;19.390;-99.256;2023-05-29T07:05:59;5.07;;;4.68;;
20954;SDS011;10636;19.390;-99.256;2023-05-29T07:08:28;4.97;;;4.57;;
20954;SDS011;10636;19.390;-99.256;2023-05-29T07:10:56;6.00;;;5.45;;
20954;SDS011;10636;19.390;-99.256;2023-05-29T07:13:26;5.18;;;4.88;;
20954;SDS011;10636;19.390;-99.256;2023-05-29T07:15:55;5.70;;;5.30;;
20954;SDS011;10636;19.390;-99.256;2023-05-29T07:18:23;5.38;;;4.88;;
20954;SDS011;10636;19.390;-99.256;2023-05-29T07:20:52;5.97;;;5.18;;
20954;SDS011;10636;19.390;-99.256;2023-05-29T07:23:21;6.18;;;5.65;;
20954;SDS011;10636;19.390;-99.256;2023-05-29T07:25:49;5.80;;;5.30;;
20954;SDS011;10636;19.390;-99.256;2023-05-29T07:28:18;6.15;;;5.65;;
20954;SDS011;10636;19.390;-99.256;2023-05-29T07:30:48;5.82;;;5.32;;
20954;SDS011;10636;19.390;-99.256;2023-05-29T07:33:16;6.05;;;5.65;;
20954;SDS011;10636;19.390;-99.256;2023-05-29T07:35:45;6.22;;;5.75;;
20954;SDS011;10636;19.390;-99.256;2023-05-29T07:38:13;6.15;;;5.70;;
20954;SDS011;10636;19.390;-99.256;2023-05-29T07:40:42;6.63;;;6.13;;
20954;SDS011;10636;19.390;-99.256;2023-05-29T07:43:10;6.68;;;6.18;;
20954;SDS011;10636;19.390;-99.256;2023-05-29T07:45:38;6.68;;;6.18;;
20954;SDS011;10636;19.390;-99.256;2023-05-29T07:48:08;6.28;;;5.78;;
20954;SDS011;10636;19.390;-99.256;2023-05-29T07:50:37;6.90;;;6.32;;
20954;SDS011;10636;19.390;-99.256;2023-05-29T07:53:06;6.68;;;6.18;;
20954;SDS011;10636;19.390;-99.256;2023-05-29T07:55:34;6.25;;;5.75;;
20954;SDS011;10636;19.390;-99.256;2023-05-29T07:58:03;5.97;;;5.47;;
20954;SDS011;10636;19.390;-99.256;2023-05-29T08:00:31;6.78;;;6.28;;
20954;SDS011;10636;19.390;-99.256;2023-05-29T08:02:59;6.15;;;5.55;;
20954;SDS011;10636;19.390;-99.256;2023-05-29T08:05:30;6.32;;;5.72;;
20954;SDS011;10636;19.390;-99.256;2023-05-29T08:07:58;7.13;;;6.60;;
20954;SDS011;10636;19.390;-99.256;2023-05-29T08:10:27;6.25;;;5.75;;
20954;SDS011;10636;19.390;-99.256;2023-05-29T08:12:55;6.75;;;6.20;;
20954;SDS011;10636;19.390;-99.256;2023-05-29T08:15:24;7.70;;;7.10;;
20954;SDS011;10636;19.390;-99.256;2023-05-29T08:17:52;7.03;;;6.45;;
20954;SDS011;10636;19.390;-99.256;2023-05-29T08:20:21;6.47;;;5.88;;
20954;SDS011;10636;19.390;-99.256;2023-05-29T08:22:52;6.65;;;6.13;;
20954;SDS011;10636;19.390;-99.256;2023-05-29T08:25:21;6.57;;;5.97;;
20954;SDS011;10636;19.390;-99.256;2023-05-29T08:27:49;6.63;;;5.85;;
20954;SDS011;10636;19.390;-99.256;2023-05-29T08:30:17;6.85;;;6.25;;
20954;SDS011;10636;19.390;-99.256;2023-05-29T08:32:46;6.95;;;6.32;;
20954;SDS011;10636;19.390;-99.256;2023-05-29T08:35:15;6.47;;;5.88;;
20954;SDS011;10636;19.390;-99.256;2023-05-29T08:37:44;6.72;;;6.13;;
20954;SDS011;10636;19.390;-99.256;2023-05-29T08:40:14;6.22;;;5.63;;
20954;SDS011;10636;19.390;-99.256;2023-05-29T08:42:44;7.18;;;6.68;;
20954;SDS011;10636;19.390;-99.256;2023-05-29T08:45:18;6.97;;;6.47;;
20954;SDS011;10636;19.390;-99.256;2023-05-29T08:47:49;7.00;;;6.40;;
20954;SDS011;10636;19.390;-99.256;2023-05-29T08:50:20;7.78;;;7.18;;
20954;SDS011;10636;19.390;-99.256;2023-05-29T08:52:49;7.70;;;7.07;;
20954;SDS011;10636;19.390;-99.256;2023-05-29T08:55:20;7.45;;;6.75;;
20954;SDS011;10636;19.390;-99.256;2023-05-29T08:57:48;7.75;;;7.15;;
20954;SDS011;10636;19.390;-99.256;2023-05-29T09:00:18;7.68;;;7.07;;
20954;SDS011;10636;19.390;-99.256;2023-05-29T09:02:47;7.28;;;6.57;;
20954;SDS011;10636;19.390;-99.256;2023-05-29T09:05:17;7.10;;;6.50;;
20954;SDS011;10636;19.390;-99.256;2023-05-29T09:07:46;7.63;;;6.95;;
20954;SDS011;10636;19.390;-99.256;2023-05-29T09:10:16;8.18;;;7.20;;
20954;SDS011;10636;19.390;-99.256;2023-05-29T09:12:46;7.93;;;7.20;;
20954;SDS011;10636;19.390;-99.256;2023-05-29T09:15:19;8.07;;;7.30;;
20954;SDS011;10636;19.390;-99.256;2023-05-29T09:17:51;7.82;;;7.13;;
20954;SDS011;10636;19.390;-99.256;2023-05-29T09:20:20;8.63;;;7.93;;
20954;SDS011;10636;19.390;-99.256;2023-05-29T09:22:53;7.82;;;7.03;;
20954;SDS011;10636;19.390;-99.256;2023-05-29T09:25:22;8.48;;;7.68;;
20954;SDS011;10636;19.390;-99.256;2023-05-29T09:27:54;8.05;;;7.25;;
20954;SDS011;10636;19.390;-99.256;2023-05-29T09:30:34;8.48;;;7.70;;
20954;SDS011;10636;19.390;-99.256;2023-05-29T09:33:04;8.60;;;7.80;;
20954;SDS011;10636;19.390;-99.256;2023-05-29T09:35:34;10.23;;;8.27;;
20954;SDS011;10636;19.390;-99.256;2023-05-29T09:38:04;9.35;;;7.78;;
20954;SDS011;10636;19.390;-99.256;2023-05-29T09:40:33;8.25;;;7.55;;
20954;SDS011;10636;19.390;-99.256;2023-05-29T09:43:05;9.30;;;8.43;;
20954;SDS011;10636;19.390;-99.256;2023-05-29T09:45:38;8.57;;;7.82;;
20954;SDS011;10636;19.390;-99.256;2023-05-29T09:48:07;8.65;;;7.85;;
20954;SDS011;10636;19.390;-99.256;2023-05-29T09:50:39;8.25;;;7.47;;
20954;SDS011;10636;19.390;-99.256;2023-05-29T09:53:16;8.25;;;7.28;;
20954;SDS011;10636;19.390;-99.256;2023-05-29T09:55:46;8.27;;;7.57;;
20954;SDS011;10636;19.390;-99.256;2023-05-29T09:58:17;8.50;;;7.80;;
20954;SDS011;10636;19.390;-99.256;2023-05-29T10:00:46;8.40;;;7.70;;
20954;SDS011;10636;19.390;-99.256;2023-05-29T10:03:15;8.13;;;7.53;;
20954;SDS011;10636;19.390;-99.256;2023-05-29T10:05:44;8.18;;;7.47;;
20954;SDS011;10636;19.390;-99.256;2023-05-29T10:08:17;11.50;;;10.73;;
20954;SDS011;10636;19.390;-99.256;2023-05-29T10:10:46;8.43;;;7.72;;
20954;SDS011;10636;19.390;-99.256;2023-05-29T10:13:23;8.30;;;7.70;;
20954;SDS011;10636;19.390;-99.256;2023-05-29T10:15:55;8.52;;;7.82;;
20954;SDS011;10636;19.390;-99.256;2023-05-29T10:18:26;8.98;;;8.27;;
20954;SDS011;10636;19.390;-99.256;2023-05-29T10:20:59;7.97;;;7.38;;
20954;SDS011;10636;19.390;-99.256;2023-05-29T10:23:29;7.50;;;6.90;;
20954;SDS011;10636;19.390;-99.256;2023-05-29T10:25:58;7.40;;;6.68;;
20954;SDS011;10636;19.390;-99.256;2023-05-29T10:28:35;7.47;;;6.88;;
20954;SDS011;10636;19.390;-99.256;2023-05-29T10:31:07;7.75;;;7.15;;
20954;SDS011;10636;19.390;-99.256;2023-05-29T10:33:41;6.70;;;6.10;;
20954;SDS011;10636;19.390;-99.256;2023-05-29T10:36:20;7.15;;;6.50;;
20954;SDS011;10636;19.390;-99.256;2023-05-29T10:38:52;6.90;;;6.30;;
20954;SDS011;10636;19.390;-99.256;2023-05-29T10:41:30;7.20;;;6.50;;
20954;SDS011;10636;19.390;-99.256;2023-05-29T10:47:22;6.40;;;5.80;;
20954;SDS011;10636;19.390;-99.256;2023-05-29T10:49:51;7.32;;;6.72;;
20954;SDS011;10636;19.390;-99.256;2023-05-29T10:52:19;6.90;;;6.40;;
20954;SDS011;10636;19.390;-99.256;2023-05-29T10:54:52;7.18;;;6.57;;
20954;SDS011;10636;19.390;-99.256;2023-05-29T10:57:22;6.82;;;6.32;;
20954;SDS011;10636;19.390;-99.256;2023-05-29T11:00:09;7.38;;;6.63;;
20954;SDS011;10636;19.390;-99.256;2023-05-29T11:02:40;8.85;;;8.23;;
20954;SDS011;10636;19.390;-99.256;2023-05-29T11:05:19;6.63;;;6.03;;
20954;SDS011;10636;19.390;-99.256;2023-05-29T11:07:53;6.72;;;6.13;;
20954;SDS011;10636;19.390;-99.256;2023-05-29T11:10:45;7.18;;;6.57;;
20954;SDS011;10636;19.390;-99.256;2023-05-29T11:13:25;7.15;;;6.57;;
20954;SDS011;10636;19.390;-99.256;2023-05-29T11:16:12;6.80;;;6.30;;
20954;SDS011;10636;19.390;-99.256;2023-05-29T11:18:42;6.60;;;6.00;;
20954;SDS011;10636;19.390;-99.256;2023-05-29T11:21:29;6.78;;;6.07;;
20954;SDS011;10636;19.390;-99.256;2023-05-29T11:24:00;6.70;;;6.10;;
20954;SDS011;10636;19.390;-99.256;2023-05-29T11:26:30;7.03;;;6.18;;
20954;SDS011;10636;19.390;-99.256;2023-05-29T11:28:59;6.65;;;6.15;;
20954;SDS011;10636;19.390;-99.256;2023-05-29T11:31:33;6.78;;;6.18;;
20954;SDS011;10636;19.390;-99.256;2023-05-29T11:34:02;6.90;;;6.30;;
20954;SDS011;10636;19.390;-99.256;2023-05-29T11:36:31;7.20;;;6.60;;
20954;SDS011;10636;19.390;-99.256;2023-05-29T11:39:01;6.80;;;6.20;;
20954;SDS011;10636;19.390;-99.256;2023-05-29T11:41:29;6.22;;;5.63;;
20954;SDS011;10636;19.390;-99.256;2023-05-29T11:43:58;6.43;;;5.93;;
20954;SDS011;10636;19.390;-99.256;2023-05-29T11:46:28;6.55;;;6.05;;
20954;SDS011;10636;19.390;-99.256;2023-05-29T11:48:59;6.93;;;6.22;;
20954;SDS011;10636;19.390;-99.256;2023-05-29T11:51:28;7.13;;;6.43;;
20954;SDS011;10636;19.390;-99.256;2023-05-29T11:53:57;6.90;;;6.20;;
20954;SDS011;10636;19.390;-99.256;2023-05-29T11:56:25;7.20;;;6.55;;
20954;SDS011;10636;19.390;-99.256;2023-05-29T11:58:55;7.88;;;6.80;;
20954;SDS011;10636;19.390;-99.256;2023-05-29T12:01:25;8.30;;;6.85;;
20954;SDS011;10636;19.390;-99.256;2023-05-29T12:03:54;7.72;;;6.97;;
20954;SDS011;10636;19.390;-99.256;2023-05-29T12:06:34;7.43;;;6.63;;
20954;SDS011;10636;19.390;-99.256;2023-05-29T12:09:04;7.82;;;7.13;;
20954;SDS011;10636;19.390;-99.256;2023-05-29T12:11:33;7.97;;;7.25;;
20954;SDS011;10636;19.390;-99.256;2023-05-29T12:14:02;8.30;;;7.57;;
20954;SDS011;10636;19.390;-99.256;2023-05-29T12:16:30;8.63;;;7.82;;
20954;SDS011;10636;19.390;-99.256;2023-05-29T12:19:01;9.60;;;8.70;;
20954;SDS011;10636;19.390;-99.256;2023-05-29T12:21:30;9.18;;;8.23;;
20954;SDS011;10636;19.390;-99.256;2023-05-29T12:24:00;9.90;;;9.10;;
20954;SDS011;10636;19.390;-99.256;2023-05-29T12:26:29;9.75;;;9.05;;
20954;SDS011;10636;19.390;-99.256;2023-05-29T12:29:01;9.48;;;8.43;;
20954;SDS011;10636;19.390;-99.256;2023-05-29T12:31:33;9.50;;;8.60;;
20954;SDS011;10636;19.390;-99.256;2023-05-29T12:34:02;8.85;;;7.95;;
20954;SDS011;10636;19.390;-99.256;2023-05-29T12:36:35;8.88;;;8.07;;
20954;SDS011;10636;19.390;-99.256;2023-05-29T12:39:08;9.88;;;9.02;;
20954;SDS011;10636;19.390;-99.256;2023-05-29T12:41:37;10.13;;;9.30;;
20954;SDS011;10636;19.390;-99.256;2023-05-29T12:44:06;10.00;;;9.10;;
20954;SDS011;10636;19.390;-99.256;2023-05-29T12:46:35;10.50;;;9.48;;
20954;SDS011;10636;19.390;-99.256;2023-05-29T12:49:14;10.25;;;9.40;;
20954;SDS011;10636;19.390;-99.256;2023-05-29T12:51:46;10.68;;;9.77;;
20954;SDS011;10636;19.390;-99.256;2023-05-29T12:54:16;10.95;;;10.15;;
20954;SDS011;10636;19.390;-99.256;2023-05-29T12:56:44;10.10;;;9.20;;
20954;SDS011;10636;19.390;-99.256;2023-05-29T12:59:13;9.00;;;8.18;;
20954;SDS011;10636;19.390;-99.256;2023-05-29T13:01:41;9.20;;;8.30;;
20954;SDS011;10636;19.390;-99.256;2023-05-29T13:04:10;9.35;;;8.38;;
20954;SDS011;10636;19.390;-99.256;2023-05-29T13:06:39;10.43;;;9.52;;
20954;SDS011;10636;19.390;-99.256;2023-05-29T13:09:07;11.23;;;10.23;;
20954;SDS011;10636;19.390;-99.256;2023-05-29T13:11:38;10.82;;;9.90;;
20954;SDS011;10636;19.390;-99.256;2023-05-29T13:14:07;11.27;;;10.27;;
20954;SDS011;10636;19.390;-99.256;2023-05-29T13:16:36;12.20;;;11.27;;
20954;SDS011;10636;19.390;-99.256;2023-05-29T13:19:04;10.32;;;9.43;;
20954;SDS011;10636;19.390;-99.256;2023-05-29T13:21:33;9.30;;;8.27;;
20954;SDS011;10636;19.390;-99.256;2023-05-29T13:24:01;8.18;;;7.45;;
20954;SDS011;10636;19.390;-99.256;2023-05-29T13:26:30;12.20;;;11.20;;
20954;SDS011;10636;19.390;-99.256;2023-05-29T13:29:00;9.55;;;8.38;;
20954;SDS011;10636;19.390;-99.256;2023-05-29T13:31:29;11.25;;;8.85;;
20954;SDS011;10636;19.390;-99.256;2023-05-29T13:33:57;11.70;;;10.70;;
20954;SDS011;10636;19.390;-99.256;2023-05-29T13:36:26;9.98;;;8.90;;
20954;SDS011;10636;19.390;-99.256;2023-05-29T13:38:54;10.20;;;9.20;;
20954;SDS011;10636;19.390;-99.256;2023-05-29T13:41:23;10.57;;;8.52;;
20954;SDS011;10636;19.390;-99.256;2023-05-29T13:43:51;8.88;;;8.07;;
20954;SDS011;10636;19.390;-99.256;2023-05-29T13:46:21;9.55;;;8.63;;
20954;SDS011;10636;19.390;-99.256;2023-05-29T13:48:49;9.75;;;8.75;;
20954;SDS011;10636;19.390;-99.256;2023-05-29T13:51:18;11.52;;;9.57;;
20954;SDS011;10636;19.390;-99.256;2023-05-29T13:53:46;11.30;;;10.10;;
20954;SDS011;10636;19.390;-99.256;2023-05-29T13:56:15;11.40;;;10.25;;
20954;SDS011;10636;19.390;-99.256;2023-05-29T13:58:43;13.00;;;11.77;;
20954;SDS011;10636;19.390;-99.256;2023-05-29T14:01:13;12.70;;;11.55;;
20954;SDS011;10636;19.390;-99.256;2023-05-29T14:03:46;13.70;;;12.52;;
20954;SDS011;10636;19.390;-99.256;2023-05-29T14:06:14;13.00;;;11.70;;
20954;SDS011;10636;19.390;-99.256;2023-05-29T14:08:43;13.25;;;11.98;;
20954;SDS011;10636;19.390;-99.256;2023-05-29T14:11:15;12.88;;;11.57;;
20954;SDS011;10636;19.390;-99.256;2023-05-29T14:13:49;12.05;;;10.93;;
20954;SDS011;10636;19.390;-99.256;2023-05-29T14:16:18;12.75;;;11.65;;
20954;SDS011;10636;19.390;-99.256;2023-05-29T14:18:51;12.85;;;11.68;;
20954;SDS011;10636;19.390;-99.256;2023-05-29T14:21:19;15.13;;;13.88;;
20954;SDS011;10636;19.390;-99.256;2023-05-29T14:23:48;16.83;;;15.35;;
20954;SDS011;10636;19.390;-99.256;2023-05-29T14:26:16;18.95;;;17.33;;
20954;SDS011;10636;19.390;-99.256;2023-05-29T14:28:44;14.50;;;12.40;;
20954;SDS011;10636;19.390;-99.256;2023-05-29T14:31:13;15.07;;;13.48;;
20954;SDS011;10636;19.390;-99.256;2023-05-29T14:33:42;15.30;;;12.60;;
20954;SDS011;10636;19.390;-99.256;2023-05-29T14:36:12;16.33;;;14.88;;
20954;SDS011;10636;19.390;-99.256;2023-05-29T14:38:40;15.80;;;14.43;;
20954;SDS011;10636;19.390;-99.256;2023-05-29T14:41:10;14.18;;;12.70;;